Terminal Aerodrome Forecast
Issued by NWS

Home | Current Version | Previous Version | Graphics & Text | Print | Product List | Glossary On
Versions: 1 2 3 4 5 6 7 8 9 10 11 12 13 14 15 16 17 18
000
FTUS43 KABR 252100 AAA
TAFMBG
TAF AMD
KMBG 252146Z 2522/2618 35012KT P6SM BKN014 OVC019=

USA.gov is the U.S. government's official web portal to all federal, state and local government web resources and services.